Latest Weather Observations for Cape Grim

IDT60801

Issued at 9:31 pm EDT Thursday 5 March 2015 (issued every 30 minutes, with the page automatically refreshed every 10 minutes)

About weather observations | Map of weather stations | Latest weather observations for TAS | Other Formats
Station Details ID: 091331 Name: CAPE GRIM Lat: -40.68 Lon: 144.69 Height: 86.0 m
Data from the previous 72 hours. | See also: Recent months at Cape Grim
Date/Time
EDT
Temp
°C
App
Temp
°C
Dew
Point
Rel
Hum
%
Delta-T
°C
Wind Press
QNH
hPa
Press
MSL
hPa
Rain
since 9 am
mm
Dir
 
Spd
km/h
Gust
km/h
Spd
kts
Gust
kts
05/09:30pm 13.7 3.7 9.2 74 2.3 W 52 78 28 42 1007.6 1007.4 0.0
05/09:00pm 13.8 2.8 8.4 70 2.7 W 56 78 30 42 1007.7 1007.5 0.0
05/08:30pm 13.9 3.7 8.7 71 2.6 W 52 82 28 44 1007.6 1007.4 0.0
05/08:00pm 13.8 3.7 7.6 66 3.1 W 50 72 27 39 1008.2 1008.0 0.0
05/07:30pm 13.9 4.1 8.7 71 2.6 W 50 74 27 40 1008.6 1008.5 0.0
05/07:08pm 13.7 4.3 8.7 72 2.5 W 48 69 26 37 1008.7 1008.6 0.0
05/07:00pm 13.8 4.5 9.0 73 2.4 W 48 65 26 35 1009.0 1008.9 0.0
05/06:30pm 13.9 5.2 8.5 70 2.7 W 44 69 24 37 1009.4 1009.3 0.0
05/06:00pm 13.8 4.6 7.8 67 3.0 W 46 70 25 38 1009.6 1009.6 0.0
05/05:30pm 13.0 3.2 7.2 68 2.8 W 48 70 26 38 1010.2 1010.1 0.0
05/05:00pm 13.7 5.2 6.8 63 3.4 W 41 63 22 34 1010.6 1010.5 0.0
05/04:30pm 14.0 5.9 6.8 62 3.5 WSW 39 63 21 34 1011.0 1010.9 0.0
05/04:00pm 14.1 6.7 6.9 62 3.5 WSW 35 57 19 31 1011.5 1011.4 0.0
05/03:30pm 14.0 6.3 7.1 63 3.4 WSW 37 76 20 41 1011.9 1011.8 0.0
05/03:00pm 13.8 6.7 6.2 60 3.6 WSW 33 61 18 33 1012.2 1012.1 0.0
05/02:30pm 14.3 5.7 4.9 53 4.4 WSW 39 67 21 36 1012.3 1012.2 0.0
05/02:00pm 14.2 4.9 4.8 53 4.4 SW 43 69 23 37 1012.4 1012.3 0.0
05/01:30pm 13.5 5.3 6.4 62 3.4 WSW 39 76 21 41 1012.6 1012.5 0.0
05/01:00pm 13.2 3.2 4.4 55 4.0 SW 46 67 25 36 1012.7 1012.6 0.0
05/12:30pm 13.2 2.7 5.4 59 3.7 SW 50 69 27 37 1013.1 1013.0 0.0
05/12:00pm 13.0 2.6 5.9 62 3.4 SW 50 78 27 42 1013.2 1013.1 0.0
05/11:51am 12.9 2.6 6.5 65 3.1 SW 50 69 27 37 1013.3 1013.2 0.0
05/11:30am 12.7 1.6 6.3 65 3.1 SW 54 69 29 37 1013.7 1013.6 0.0
05/11:00am 11.9 0.1 5.5 65 3.0 SW 57 76 31 41 1013.7 1013.6 0.0
05/10:48am 12.8 1.2 5.9 63 3.3 SW 56 78 30 42 1013.4 1013.3 0.0
05/10:30am 12.9 0.7 3.8 54 4.1 SW 57 72 31 39 1013.2 1013.1 0.0
05/10:00am 12.6 0.9 6.0 64 3.1 SW 57 76 31 41 1012.7 1012.6 0.0
05/09:30am 11.5 -0.5 4.7 63 3.1 SW 57 82 31 44 1012.6 1012.5 0.0
05/09:00am 10.9 -0.5 5.0 67 2.7 WSW 54 83 29 45 1012.1 1012.0 6.2
05/08:57am 11.0 -1.0 6.6 74 2.1 SW 59 91 32 49 1012.1 1012.0 6.2
05/08:30am 12.3 -1.4 3.8 56 3.8 SW 65 89 35 48 1011.3 1011.2 6.2
05/08:00am 11.2 -2.5 5.7 69 2.6 SW 67 85 36 46 1010.7 1010.6 6.2
05/07:30am 12.1 -2.7 3.1 54 4.0 SW 70 91 38 49 1009.9 1009.8 6.2
05/07:00am 11.9 -2.2 5.5 65 3.0 SW 69 95 37 51 1009.2 1009.1 6.2
05/06:30am 11.3 -3.4 5.4 67 2.7 SW 72 93 39 50 1008.4 1008.2 6.2
05/05:41am 7.3 -8.6 3.2 75 1.7 SW 76 113 41 61 1006.9 1006.7 5.8
05/05:30am 11.6 -3.4 6.1 69 2.6 SW 74 95 40 51 1006.6 1006.4 5.0
05/05:00am 12.0 -3.1 5.6 65 3.0 SW 74 102 40 55 1005.8 1005.6 5.0
05/04:56am 11.9 -3.0 6.4 69 2.6 SW 74 104 40 56 1005.6 1005.5 5.0
05/04:48am 11.8 -3.2 5.7 66 2.8 SW 74 104 40 56 1005.4 1005.3 5.0
05/04:30am 12.3 -1.3 6.4 67 2.8 SW 67 98 36 53 1005.2 1005.1 4.6
05/04:29am 12.4 -1.5 6.5 67 2.8 SW 69 98 37 53 1005.1 1005.0 4.6
05/04:26am 12.2 -1.8 6.3 67 2.8 SW 69 96 37 52 1004.9 1004.8 4.6
05/04:15am 12.2 -3.8 6.3 67 2.8 SW 80 117 43 63 1004.7 1004.6 4.6
05/04:01am 12.4 -3.3 6.0 65 3.0 SW 78 100 42 54 1004.5 1004.4 4.6
05/04:00am 12.5 -3.2 6.3 66 3.0 SW 78 100 42 54 1004.7 1004.6 4.6
05/03:58am 12.0 -3.6 4.7 61 3.3 SW 76 100 41 54 1004.6 1004.5 4.6
05/03:44am 12.6 -1.1 5.8 63 3.2 SW 67 98 36 53 1004.2 1004.1 4.6
05/03:38am 12.9 -1.5 7.1 68 2.8 SW 72 98 39 53 1004.1 1004.0 4.6
05/03:30am 11.9 -1.2 6.6 70 2.5 SW 65 98 35 53 1004.0 1003.9 4.6
05/03:29am 11.8 -1.4 6.5 70 2.5 WSW 65 102 35 55 1004.0 1003.9 4.6
05/03:25am 12.1 -0.7 6.4 68 2.7 WSW 63 102 34 55 1003.9 1003.8 4.6
05/03:21am 12.3 -0.6 5.9 65 3.0 WSW 63 102 34 55 1003.6 1003.5 4.6
05/03:00am 12.4 0.7 6.2 66 3.0 WSW 57 93 31 50 1003.3 1003.2 4.6
05/02:32am 11.4 -2.3 8.3 81 1.5 SW 70 95 38 51 1003.6 1003.5 4.6
05/02:30am 11.5 -2.0 8.4 81 1.5 SW 69 95 37 51 1003.5 1003.4 4.6
05/02:28am 11.2 -2.1 7.7 79 1.7 SW 67 96 36 52 1003.4 1003.3 4.6
05/02:00am 11.6 0.3 7.9 78 1.8 SW 57 83 31 45 1003.2 1003.1 4.4
05/01:41am 10.3 -4.7 7.4 82 1.4 WSW 76 117 41 63 1003.4 1003.3 4.2
05/01:35am 11.6 -1.1 8.3 80 1.6 WSW 65 111 35 60 1002.9 1002.8 4.2
05/01:30am 12.5 1.7 6.1 65 3.0 WSW 52 96 28 52 1002.7 1002.6 4.2
05/01:29am 12.6 1.8 6.0 64 3.1 WSW 52 96 28 52 1002.7 1002.6 4.2
05/01:15am 12.2 0.1 7.9 75 2.1 WSW 61 98 33 53 1002.9 1002.8 4.2
05/01:00am 11.5 -1.1 8.9 84 1.3 WSW 65 104 35 56 1002.9 1002.8 4.2
05/12:50am 11.5 0.3 8.2 80 1.6 WSW 57 106 31 57 1002.6 1002.5 4.2
05/12:48am 11.8 1.5 8.1 78 1.8 WSW 52 98 28 53 1002.3 1002.2 4.2
05/12:30am 14.1 5.1 8.9 71 2.6 W 46 80 25 43 1002.2 1002.1 3.8
 
Date/Time
EDT
Temp
°C
App
Temp
°C
Dew
Point
Rel
Hum
%
Delta-T
°C
Wind Press
QNH
hPa
Press
MSL
hPa
Rain
since 9 am
mm
Dir
 
Spd
km/h
Gust
km/h
Spd
kts
Gust
kts
04/11:56pm 14.4 3.5 9.6 73 2.5 W 57 98 31 53 1001.9 1001.8 3.8
04/11:30pm 14.5 6.1 10.9 79 1.9 W 46 76 25 41 1002.3 1002.2 3.8
04/11:00pm 14.5 6.5 11.1 80 1.8 W 44 65 24 35 1002.5 1002.4 3.6
04/10:30pm 13.5 5.5 11.0 85 1.3 W 44 74 24 40 1002.9 1002.8 3.6
04/10:00pm 13.6 5.9 11.5 87 1.1 W 43 65 23 35 1003.1 1003.0 2.8
04/09:30pm 15.3 7.1 11.7 79 2.0 W 46 67 25 36 1003.5 1003.4 2.8
04/09:02pm 15.1 8.5 12.6 85 1.4 W 39 57 21 31 1003.5 1003.4 2.8
04/09:00pm 15.0 8.4 12.7 86 1.3 W 39 56 21 30 1003.5 1003.4 2.8
04/08:30pm 13.8 6.1 12.2 90 0.9 W 44 69 24 37 1003.7 1003.6 2.8
04/08:01pm 15.3 7.8 12.8 85 1.4 W 44 63 24 34 1003.8 1003.7 1.6
04/08:00pm 15.6 7.9 13.3 86 1.3 W 46 63 25 34 1003.8 1003.7 1.6
04/07:30pm 15.9 5.8 13.6 86 1.3 WNW 59 78 32 42 1003.8 1003.7 1.6
04/07:22pm 15.7 5.9 13.2 85 1.4 WNW 57 78 31 42 1003.8 1003.7 1.6
04/07:02pm 15.3 5.3 12.8 85 1.4 WNW 57 69 31 37 1004.1 1004.0 1.6
04/07:00pm 15.3 5.4 13.0 86 1.3 WNW 57 72 31 39 1004.2 1004.1 1.6
04/06:47pm 15.3 8.0 13.3 88 1.1 W 44 69 24 37 1004.5 1004.4 1.6
04/06:44pm 15.4 8.1 13.4 88 1.1 W 44 61 24 33 1004.6 1004.5 1.6
04/06:30pm 16.1 8.3 13.0 82 1.7 WNW 46 61 25 33 1004.8 1004.7 1.6
04/06:00pm 16.5 9.0 12.8 79 2.1 WNW 44 59 24 32 1005.3 1005.2 1.6
04/05:30pm 16.3 8.9 12.5 78 2.1 W 43 61 23 33 1005.9 1005.7 1.6
04/05:01pm 15.7 8.7 12.5 81 1.8 W 41 59 22 32 1006.4 1006.2 1.6
04/05:00pm 15.7 8.3 12.6 82 1.7 W 43 59 23 32 1006.4 1006.2 1.6
04/04:32pm 16.2 8.2 13.5 84 1.5 WNW 48 69 26 37 1006.4 1006.2 1.0
04/04:30pm 15.9 8.1 13.0 83 1.6 WNW 46 61 25 33 1006.3 1006.1 1.0
04/04:00pm 17.1 9.9 13.6 80 2.0 W 44 67 24 36 1006.8 1006.6 1.0
04/03:30pm 15.7 10.0 14.1 90 0.9 W 37 57 20 31 1007.4 1007.2 1.0
04/03:27pm 15.1 9.1 13.3 89 1.0 W 37 56 20 30 1007.4 1007.2 1.0
04/03:26pm 15.2 8.9 13.4 89 1.0 W 39 56 21 30 1007.5 1007.3 1.0
04/03:00pm 14.2 7.6 12.6 90 0.9 W 39 57 21 31 1007.9 1007.7 0.8
04/02:46pm 14.9 9.2 12.9 88 1.1 W 35 56 19 30 1007.8 1007.6 0.2
04/02:35pm 15.4 8.0 12.3 82 1.7 W 43 61 23 33 1007.8 1007.6 0.2
04/02:30pm 17.2 9.7 12.7 75 2.5 WNW 44 57 24 31 1007.7 1007.5 0.0
04/02:00pm 18.5 10.7 12.9 70 3.2 WNW 46 57 25 31 1008.1 1007.9 0.0
04/01:30pm 18.1 10.8 13.4 74 2.7 WNW 44 61 24 33 1008.2 1008.0 0.0
04/01:00pm 18.0 10.5 12.7 71 3.0 W 44 56 24 30 1008.7 1008.6 0.0
04/12:30pm 18.0 10.8 13.1 73 2.8 W 43 56 23 30 1009.2 1009.1 0.0
04/12:00pm 18.3 11.5 13.2 72 2.9 WNW 41 50 22 27 1009.5 1009.4 0.0
04/11:30am 17.2 9.2 12.3 73 2.7 WNW 46 65 25 35 1009.9 1009.8 0.0
04/11:00am 17.1 9.4 11.6 70 3.0 WNW 43 57 23 31 1010.1 1010.0 0.0
04/10:30am 16.9 8.8 12.2 74 2.6 WNW 46 57 25 31 1010.3 1010.2 0.0
04/10:00am 17.4 10.3 12.1 71 2.9 W 41 56 22 30 1010.5 1010.4 0.0
04/09:30am 16.4 8.8 11.8 74 2.5 W 43 56 23 30 1010.4 1010.3 0.0
04/09:00am 15.8 8.1 12.2 79 2.0 WNW 44 54 24 29 1010.5 1010.4 0.2
04/08:30am 14.2 7.6 11.4 83 1.5 WNW 37 46 20 25 1010.7 1010.6 0.2
04/08:18am 14.4 4.7 10.6 78 2.0 WNW 52 70 28 38 1010.7 1010.6 0.2
04/08:00am 16.1 7.8 11.3 73 2.6 WNW 46 61 25 33 1010.1 1010.0 0.2
04/07:30am 15.7 7.2 10.7 72 2.7 W 46 61 25 33 1010.0 1009.9 0.2
04/07:11am 15.5 8.1 11.3 76 2.3 WNW 41 61 22 33 1010.0 1009.9 0.2
04/07:00am 15.2 8.2 11.2 77 2.1 WNW 39 50 21 27 1010.1 1010.0 0.2
04/06:30am 14.9 7.1 11.3 79 1.9 WNW 43 63 23 34 1010.2 1010.1 0.2
04/06:23am 15.0 7.2 11.0 77 2.1 WNW 43 63 23 34 1010.3 1010.2 0.2
04/06:00am 15.4 8.2 10.6 73 2.6 W 39 50 21 27 1010.3 1010.2 0.2
04/05:30am 15.5 7.7 9.8 69 3.0 W 41 59 22 32 1010.6 1010.5 0.2
04/05:01am 15.7 8.0 10.2 70 2.9 W 41 59 22 32 1010.6 1010.5 0.2
04/05:00am 15.7 7.6 10.2 70 2.9 W 43 59 23 32 1010.5 1010.4 0.2
04/04:31am 15.8 7.9 9.2 65 3.4 W 41 59 22 32 1010.7 1010.6 0.2
04/04:30am 15.9 8.1 9.6 66 3.3 W 41 56 22 30 1010.7 1010.6 0.2
04/04:04am 15.9 6.7 8.2 60 3.9 W 46 65 25 35 1010.8 1010.7 0.2
04/04:00am 15.9 5.6 8.2 60 3.9 W 52 65 28 35 1010.7 1010.6 0.2
04/03:30am 15.3 6.8 9.2 67 3.1 WNW 44 63 24 34 1011.2 1011.1 0.2
04/03:10am 15.7 7.5 8.2 61 3.8 W 41 59 22 32 1011.4 1011.3 0.2
04/03:00am 15.7 7.3 7.2 57 4.2 W 41 57 22 31 1011.7 1011.6 0.2
04/02:32am 15.7 8.2 9.6 67 3.2 W 39 57 21 31 1012.1 1012.0 0.2
04/02:30am 15.6 7.7 9.3 66 3.3 W 41 57 22 31 1012.0 1011.9 0.2
04/02:00am 15.5 9.1 9.2 66 3.3 W 33 48 18 26 1012.6 1012.5 0.2
04/01:30am 15.5 9.0 8.3 62 3.7 W 32 44 17 24 1012.8 1012.7 0.2
04/01:00am 15.5 8.0 7.8 60 3.9 W 37 59 20 32 1013.1 1013.0 0.2
04/12:47am 15.5 8.9 8.7 64 3.5 W 33 52 18 28 1013.2 1013.1 0.2
04/12:30am 15.2 8.7 8.0 62 3.6 W 32 43 17 23 1013.5 1013.4 0.2
04/12:00am 15.2 8.4 7.5 60 3.8 W 33 48 18 26 1013.7 1013.6 0.2
 
Date/Time
EDT
Temp
°C
App
Temp
°C
Dew
Point
Rel
Hum
%
Delta-T
°C
Wind Press
QNH
hPa
Press
MSL
hPa
Rain
since 9 am
mm
Dir
 
Spd
km/h
Gust
km/h
Spd
kts
Gust
kts
03/11:49pm 15.1 8.4 8.3 64 3.4 W 33 54 18 29 1013.8 1013.7 0.2
03/11:30pm 15.1 9.0 8.3 64 3.4 W 30 41 16 22 1014.0 1013.9 0.2
03/11:00pm 15.3 9.0 7.3 59 4.0 W 30 41 16 22 1014.2 1014.1 0.2
03/10:30pm 15.3 7.9 8.5 64 3.5 W 37 52 20 28 1014.4 1014.3 0.2
03/10:00pm 15.3 9.2 8.3 63 3.5 W 30 44 16 24 1014.4 1014.3 0.2
03/09:30pm 15.2 9.6 7.2 59 4.0 W 26 39 14 21 1014.5 1014.4 0.2
03/09:00pm 15.2 9.8 9.6 69 2.9 W 28 39 15 21 1014.4 1014.3 0.2
03/08:30pm 15.4 11.4 10.4 72 2.6 W 22 35 12 19 1014.4 1014.3 0.2
03/08:00pm 15.5 9.2 9.6 68 3.1 W 33 44 18 24 1014.1 1014.0 0.2
03/07:30pm 15.0 10.4 9.8 71 2.7 WNW 24 32 13 17 1014.2 1014.1 0.2
03/07:00pm 15.4 11.5 9.5 68 3.1 WNW 20 28 11 15 1014.3 1014.2 0.2
03/06:30pm 15.4 11.5 9.3 67 3.2 W 20 26 11 14 1014.4 1014.3 0.2
03/06:00pm 15.5 12.4 9.0 65 3.3 W 15 24 8 13 1014.6 1014.5 0.2
03/05:30pm 15.6 11.7 8.6 63 3.6 W 19 28 10 15 1014.8 1014.7 0.2
03/05:00pm 15.7 11.7 8.2 61 3.8 W 19 28 10 15 1014.9 1014.8 0.2
03/04:30pm 16.2 12.2 8.2 59 4.1 W 19 26 10 14 1015.1 1015.0 0.2
03/04:00pm 16.6 12.6 8.1 57 4.3 W 19 30 10 16 1015.4 1015.3 0.2
03/03:30pm 16.6 12.9 8.1 57 4.3 WSW 17 24 9 13 1015.5 1015.4 0.2
03/03:00pm 16.6 12.9 8.1 57 4.3 WSW 17 28 9 15 1015.9 1015.8 0.2
03/02:30pm 16.8 13.2 8.2 57 4.4 WSW 17 28 9 15 1016.0 1015.9 0.2
03/02:00pm 16.8 12.9 8.5 58 4.3 WSW 19 30 10 16 1016.1 1016.0 0.2
03/01:30pm 16.4 12.0 7.6 56 4.4 SW 20 33 11 18 1016.4 1016.3 0.0
03/01:00pm 16.8 12.6 8.2 57 4.4 SW 20 30 11 16 1016.5 1016.4 0.0
03/12:30pm 17.0 12.2 8.7 58 4.3 SW 24 30 13 16 1016.6 1016.5 0.0
03/12:00pm 16.8 13.0 9.7 63 3.7 WSW 20 30 11 16 1016.7 1016.6 0.0
03/11:30am 16.6 12.8 9.1 61 3.9 SW 19 33 10 18 1016.7 1016.6 0.0
03/11:00am 16.3 11.6 9.3 63 3.6 SW 24 37 13 20 1016.9 1016.8 0.0
03/10:30am 16.2 10.4 9.6 65 3.4 SW 30 37 16 20 1016.7 1016.6 0.0
03/10:00am 16.0 11.1 9.9 67 3.2 SW 26 35 14 19 1016.5 1016.4 0.0
03/09:30am 16.1 12.3 11.1 72 2.7 SW 22 33 12 18 1016.4 1016.3 0.0
03/09:00am 15.2 10.8 10.4 73 2.5 SW 24 37 13 20 1016.2 1016.1 0.0
03/08:30am 14.9 11.5 11.3 79 1.9 SW 20 32 11 17 1016.1 1016.0 0.0
03/08:00am 14.9 11.7 11.1 78 2.0 WSW 19 35 10 19 1015.6 1015.5 0.0
03/07:30am 14.4 10.3 11.6 83 1.5 SW 24 37 13 20 1015.4 1015.3 0.0
03/07:00am 14.3 8.9 10.9 80 1.8 SW 30 50 16 27 1015.1 1015.0 0.0
03/06:59am 14.5 9.5 11.1 80 1.8 SW 28 50 15 27 1015.1 1015.0 0.0
03/06:30am 14.7 11.6 11.5 81 1.7 WSW 19 30 10 16 1014.8 1014.7 0.0
03/06:00am 14.6 11.6 11.9 84 1.5 W 19 30 10 16 1014.6 1014.5 0.0
03/05:30am 13.8 10.5 11.5 86 1.2 SW 20 35 11 19 1014.6 1014.5 0.0
03/05:00am 14.4 9.7 11.9 85 1.4 W 28 41 15 22 1014.5 1014.4 0.0
03/04:30am 14.5 10.1 11.6 83 1.6 WSW 26 41 14 22 1014.4 1014.3 0.0
03/04:00am 15.5 11.3 11.1 75 2.4 W 24 33 13 18 1014.3 1014.2 0.0
03/03:30am 15.2 11.2 10.4 73 2.5 W 22 32 12 17 1014.1 1014.0 0.0
03/03:00am 15.3 11.3 10.5 73 2.5 W 22 32 12 17 1014.2 1014.1 0.0
03/02:30am 15.2 11.6 10.0 71 2.7 W 19 30 10 16 1014.6 1014.5 0.0
03/02:00am 15.2 11.5 9.6 69 2.9 W 19 30 10 16 1014.8 1014.7 0.0
03/01:30am 15.3 11.9 9.2 67 3.1 WSW 17 33 9 18 1015.1 1015.0 0.0
03/01:00am 15.3 11.9 9.0 66 3.2 WSW 17 28 9 15 1015.1 1015.0 0.0
03/12:30am 15.4 12.1 9.5 68 3.1 W 17 30 9 16 1015.4 1015.3 0.0
03/12:00am 15.3 11.4 9.4 68 3.1 W 20 32 11 17 1015.5 1015.4 0.0
 
Date/Time
EDT
Temp
°C
App
Temp
°C
Dew
Point
Rel
Hum
%
Delta-T
°C
Wind Press
QNH
hPa
Press
MSL
hPa
Rain
since 9 am
mm
Dir
 
Spd
km/h
Gust
km/h
Spd
kts
Gust
kts
02/11:30pm 15.4 12.0 10.6 73 2.5 W 19 28 10 15 1015.7 1015.6 0.0
02/11:00pm 15.5 11.2 10.7 73 2.6 W 24 32 13 17 1015.9 1015.8 0.0
02/10:30pm 14.7 11.2 10.3 75 2.3 WNW 19 24 10 13 1016.1 1016.0 0.0
02/10:00pm 14.7 11.5 10.1 74 2.4 WNW 17 22 9 12 1016.3 1016.2 0.0

Other Formats:

Comma delimited format used in spreadsheet applications
http://www.bom.gov.au/fwo/IDT60801/IDT60801.95954.axf

JavaScript Object Notation format (JSON) in row-major order
http://www.bom.gov.au/fwo/IDT60801/IDT60801.95954.json